createdAt,value
2018-07-30T00:01:21.305Z,12.40
2018-07-30T00:04:25.593Z,11.43
2018-07-30T00:07:29.960Z,13.10
2018-07-30T00:10:34.394Z,11.20
2018-07-30T00:13:38.874Z,13.10
2018-07-30T00:16:43.097Z,12.37
2018-07-30T00:19:47.518Z,11.57
2018-07-30T00:22:51.740Z,12.37
2018-07-30T00:25:56.193Z,11.43
2018-07-30T00:29:00.284Z,12.77
2018-07-30T00:32:05.607Z,12.70
2018-07-30T00:35:09.878Z,12.23
2018-07-30T00:38:14.214Z,12.87
2018-07-30T00:41:18.518Z,11.77
2018-07-30T00:44:23.566Z,12.67
2018-07-30T00:47:27.903Z,12.33
2018-07-30T00:50:32.139Z,13.17
2018-07-30T00:53:36.542Z,14.50
2018-07-30T00:56:40.915Z,13.67
2018-07-30T00:59:44.840Z,12.17
2018-07-30T01:02:48.746Z,11.83
2018-07-30T01:05:52.687Z,12.20
2018-07-30T01:08:56.581Z,12.50
2018-07-30T01:12:00.524Z,11.07
2018-07-30T01:15:04.550Z,14.20
2018-07-30T01:18:08.790Z,13.57
2018-07-30T01:21:13.405Z,12.30
2018-07-30T01:24:17.805Z,12.83
2018-07-30T01:27:22.238Z,12.50
2018-07-30T01:30:26.450Z,11.33
2018-07-30T01:33:30.912Z,13.10
2018-07-30T01:36:35.139Z,12.73
2018-07-30T01:39:39.468Z,12.87
2018-07-30T01:42:44.092Z,11.67
2018-07-30T01:45:48.420Z,12.53
2018-07-30T01:48:52.799Z,12.60
2018-07-30T01:51:57.112Z,14.23
2018-07-30T01:55:01.573Z,14.43
2018-07-30T01:58:05.737Z,13.30
2018-07-30T02:01:10.081Z,13.40
2018-07-30T02:04:14.554Z,11.73
2018-07-30T02:07:18.760Z,12.67
2018-07-30T02:10:23.193Z,13.90
2018-07-30T02:13:27.514Z,12.23
2018-07-30T02:16:31.698Z,13.43
2018-07-30T02:19:36.187Z,12.27
2018-07-30T02:22:40.707Z,14.03
2018-07-30T02:25:45.019Z,13.77
2018-07-30T02:28:49.816Z,14.00
2018-07-30T02:31:54.190Z,12.67
2018-07-30T02:34:58.511Z,14.03
2018-07-30T02:38:02.701Z,12.90
2018-07-30T02:41:07.085Z,12.10
2018-07-30T02:44:11.379Z,13.47
2018-07-30T02:47:15.865Z,13.10
2018-07-30T02:50:20.239Z,13.27
2018-07-30T02:53:24.785Z,13.57
2018-07-30T02:56:29.382Z,12.37
2018-07-30T02:59:33.705Z,14.00
2018-07-30T03:02:38.258Z,12.77
2018-07-30T03:05:43.061Z,13.57
2018-07-30T03:08:48.317Z,12.07
2018-07-30T03:11:52.633Z,13.13
2018-07-30T03:14:57.010Z,13.17
2018-07-30T03:18:01.370Z,14.13
2018-07-30T03:21:05.090Z,12.43
2018-07-30T03:24:09.513Z,13.53
2018-07-30T03:27:13.676Z,12.57
2018-07-30T03:30:18.050Z,14.03
2018-07-30T03:33:23.022Z,13.47
2018-07-30T03:36:27.469Z,12.20
2018-07-30T03:39:31.858Z,14.73
2018-07-30T03:42:36.436Z,15.50
2018-07-30T03:45:40.857Z,14.40
2018-07-30T03:48:45.164Z,15.07
2018-07-30T03:51:49.502Z,14.70
2018-07-30T03:54:54.545Z,14.50
2018-07-30T03:57:59.011Z,13.90
2018-07-30T04:01:03.465Z,14.43
2018-07-30T04:04:08.022Z,14.30
2018-07-30T04:07:12.378Z,14.30
2018-07-30T04:10:16.533Z,13.90
2018-07-30T04:13:20.757Z,13.90
2018-07-30T04:16:25.082Z,13.60
2018-07-30T04:19:29.537Z,13.93
2018-07-30T04:22:33.833Z,14.40
2018-07-30T04:25:37.993Z,13.67
2018-07-30T04:28:42.299Z,14.93
2018-07-30T04:31:46.612Z,13.77
2018-07-30T04:34:50.805Z,14.60
2018-07-30T04:37:55.090Z,14.10
2018-07-30T04:40:59.264Z,14.73
2018-07-30T04:44:04.202Z,15.80
2018-07-30T04:47:08.675Z,15.47
2018-07-30T04:50:12.781Z,14.37
2018-07-30T04:53:17.124Z,14.43
2018-07-30T04:56:21.451Z,14.07
2018-07-30T04:59:25.825Z,14.73
2018-07-30T05:02:31.110Z,14.57
2018-07-30T05:05:36.007Z,14.43
2018-07-30T05:08:40.331Z,15.10
2018-07-30T05:11:45.188Z,16.13
2018-07-30T05:14:49.667Z,15.23
2018-07-30T05:17:54.039Z,14.90
2018-07-30T05:20:58.192Z,15.10
2018-07-30T05:24:02.574Z,15.37
2018-07-30T05:27:07.519Z,13.83
2018-07-30T05:30:11.433Z,16.13
2018-07-30T05:33:15.686Z,14.40
2018-07-30T05:36:20.023Z,14.97
2018-07-30T05:39:24.365Z,16.50
2018-07-30T05:42:28.720Z,15.10
2018-07-30T05:45:32.474Z,14.90
2018-07-30T05:48:36.722Z,15.37
2018-07-30T05:51:41.056Z,15.17
2018-07-30T05:54:45.229Z,15.70
2018-07-30T05:57:49.516Z,15.63
2018-07-30T06:00:53.350Z,16.23
2018-07-30T06:03:57.701Z,15.23
2018-07-30T06:07:02.044Z,14.50
2018-07-30T06:10:06.573Z,15.63
2018-07-30T06:13:10.762Z,14.00
2018-07-30T06:16:14.994Z,15.10
2018-07-30T06:19:19.305Z,14.10
2018-07-30T06:22:23.637Z,15.50
2018-07-30T06:25:27.945Z,14.73
2018-07-30T06:28:32.435Z,14.30
2018-07-30T06:31:36.756Z,14.27
2018-07-30T06:34:41.284Z,15.97
2018-07-30T06:37:45.521Z,14.50
2018-07-30T06:40:49.871Z,14.43
2018-07-30T06:43:54.180Z,13.77
2018-07-30T06:46:58.561Z,14.23
2018-07-30T06:50:02.870Z,13.47
2018-07-30T06:53:07.073Z,13.87
2018-07-30T06:56:11.274Z,13.37
2018-07-30T06:59:15.753Z,14.20
2018-07-30T07:02:19.501Z,13.60
2018-07-30T07:05:23.744Z,15.13
2018-07-30T07:08:28.270Z,12.50
2018-07-30T07:11:32.594Z,13.28
2018-07-30T07:14:38.215Z,12.33
2018-07-30T07:17:43.165Z,11.88
2018-07-30T07:20:49.585Z,13.00
2018-07-30T07:23:53.883Z,13.13
2018-07-30T07:26:58.224Z,12.45
2018-07-30T07:30:02.726Z,13.00
2018-07-30T07:33:07.134Z,13.03
2018-07-30T07:36:11.889Z,11.33
2018-07-30T07:39:17.295Z,11.63
2018-07-30T07:42:26.160Z,12.20
2018-07-30T07:45:30.869Z,12.37
2018-07-30T07:48:35.191Z,11.68
2018-07-30T07:51:39.689Z,13.18
2018-07-30T07:54:44.189Z,11.00
2018-07-30T07:57:48.557Z,10.03
2018-07-30T08:00:53.226Z,12.18
2018-07-30T08:03:58.757Z,11.78
2018-07-30T08:07:03.124Z,16.15
2018-07-30T08:10:08.340Z,9.50
2018-07-30T08:13:12.688Z,9.95
2018-07-30T08:16:17.035Z,8.98
2018-07-30T08:19:21.196Z,10.23
2018-07-30T08:22:25.496Z,10.45
2018-07-30T08:25:30.001Z,9.43
2018-07-30T08:28:34.534Z,8.80
2018-07-30T08:31:38.877Z,10.03
2018-07-30T08:34:43.253Z,8.83
2018-07-30T08:37:47.667Z,8.93
2018-07-30T08:40:51.885Z,9.13
2018-07-30T08:43:56.187Z,9.13
2018-07-30T08:47:00.716Z,9.98
2018-07-30T08:50:05.329Z,10.60
2018-07-30T08:53:10.261Z,11.55
2018-07-30T08:56:14.776Z,11.27
2018-07-30T08:59:19.275Z,10.67
2018-07-30T09:02:23.640Z,10.53
2018-07-30T09:05:28.100Z,11.80
2018-07-30T09:08:32.408Z,10.50
2018-07-30T09:11:36.732Z,10.88
2018-07-30T09:14:41.007Z,11.10
2018-07-30T09:17:44.714Z,11.08
2018-07-30T09:20:49.070Z,11.00
2018-07-30T09:23:53.290Z,10.78
2018-07-30T09:26:57.750Z,11.45
2018-07-30T09:30:02.103Z,11.18
2018-07-30T09:33:06.585Z,10.33
2018-07-30T09:36:10.859Z,9.63
2018-07-30T09:39:15.228Z,10.08
2018-07-30T09:42:19.764Z,10.13
2018-07-30T09:45:24.097Z,10.53
2018-07-30T09:48:28.447Z,10.32
2018-07-30T09:51:32.815Z,10.65
2018-07-30T09:54:37.047Z,10.60
2018-07-30T09:57:41.601Z,10.00
2018-07-30T10:00:55.216Z,11.38
2018-07-30T10:04:00.516Z,11.53
2018-07-30T10:07:05.052Z,10.60
2018-07-30T10:10:09.386Z,11.45
2018-07-30T10:13:13.843Z,11.35
2018-07-30T10:16:18.157Z,11.33
2018-07-30T10:19:22.690Z,10.98
2018-07-30T10:22:27.038Z,10.25
2018-07-30T10:25:31.369Z,10.50
2018-07-30T10:28:35.700Z,9.83
2018-07-30T10:31:40.154Z,9.28
2018-07-30T10:34:45.307Z,10.20
2018-07-30T10:37:49.840Z,11.30
2018-07-30T10:40:54.030Z,10.90
2018-07-30T10:43:58.303Z,11.80
2018-07-30T10:47:02.498Z,10.90
2018-07-30T10:50:06.995Z,11.20
2018-07-30T10:53:11.161Z,11.80
2018-07-30T10:56:15.704Z,11.80
2018-07-30T10:59:20.177Z,11.73
2018-07-30T11:02:24.718Z,10.10
2018-07-30T11:05:29.032Z,10.27
2018-07-30T11:08:33.426Z,10.50
2018-07-30T11:11:37.067Z,10.20
2018-07-30T11:14:41.424Z,11.53
2018-07-30T11:17:45.595Z,10.27
2018-07-30T11:20:49.802Z,10.27
2018-07-30T11:23:54.259Z,10.17
2018-07-30T11:26:58.670Z,10.67
2018-07-30T11:30:03.137Z,10.40
2018-07-30T11:33:07.458Z,9.80
2018-07-30T11:36:12.085Z,9.53
2018-07-30T11:39:16.022Z,10.53
2018-07-30T11:42:20.262Z,10.17
2018-07-30T11:45:24.608Z,9.80
2018-07-30T11:48:29.026Z,10.10
2018-07-30T11:51:33.390Z,10.27
2018-07-30T11:54:37.612Z,11.50
2018-07-30T11:57:42.002Z,11.03
2018-07-30T12:00:46.279Z,11.67
2018-07-30T12:03:50.724Z,12.17
2018-07-30T12:06:55.021Z,11.17
2018-07-30T12:09:59.483Z,10.73
2018-07-30T12:13:03.678Z,9.67
2018-07-30T12:16:08.042Z,9.80
2018-07-30T12:19:12.518Z,10.33
2018-07-30T12:22:16.851Z,9.73
2018-07-30T12:25:21.066Z,10.30
2018-07-30T12:28:25.595Z,9.47
2018-07-30T12:31:29.877Z,10.17
2018-07-30T12:34:35.055Z,10.67
2018-07-30T12:37:39.311Z,10.70
2018-07-30T12:40:43.775Z,10.20
2018-07-30T12:43:48.004Z,9.87
2018-07-30T12:46:52.130Z,12.43
2018-07-30T12:49:56.443Z,11.07
2018-07-30T12:53:00.731Z,12.10
2018-07-30T12:56:05.134Z,12.17
2018-07-30T12:59:09.378Z,11.93
2018-07-30T13:02:13.606Z,13.10
2018-07-30T13:05:17.830Z,11.43
2018-07-30T13:08:22.278Z,10.93
2018-07-30T13:11:26.789Z,10.37
2018-07-30T13:14:31.234Z,10.60
2018-07-30T13:17:35.662Z,10.63
2018-07-30T13:20:39.988Z,10.73
2018-07-30T13:23:44.202Z,10.47
2018-07-30T13:26:49.168Z,11.30
2018-07-30T13:29:53.454Z,10.30
2018-07-30T13:32:57.758Z,9.97
2018-07-30T13:36:02.228Z,11.23
2018-07-30T13:39:09.072Z,10.80
2018-07-30T13:42:13.382Z,11.70
2018-07-30T13:45:18.058Z,10.40
2018-07-30T13:48:22.205Z,10.43
2018-07-30T13:51:26.555Z,10.37
2018-07-30T13:54:30.949Z,9.40
2018-07-30T13:57:35.203Z,10.13
2018-07-30T14:00:39.544Z,10.57
2018-07-30T14:03:43.742Z,10.70
2018-07-30T14:06:48.378Z,10.30
2018-07-30T14:09:52.609Z,11.83
2018-07-30T14:12:57.179Z,10.20
2018-07-30T14:16:01.458Z,11.03
2018-07-30T14:19:05.991Z,11.00
2018-07-30T14:22:10.201Z,10.83
2018-07-30T14:25:14.502Z,10.63
2018-07-30T14:28:18.841Z,11.13
2018-07-30T14:31:23.881Z,11.50
2018-07-30T14:34:28.143Z,11.63
2018-07-30T14:37:32.379Z,11.40
2018-07-30T14:40:36.637Z,11.73
2018-07-30T14:43:40.847Z,12.30
2018-07-30T14:46:45.159Z,11.00
2018-07-30T14:49:49.787Z,11.93
2018-07-30T14:52:54.428Z,13.13
2018-07-30T14:55:58.546Z,12.10
2018-07-30T14:59:02.799Z,12.57
2018-07-30T15:02:07.073Z,12.17
2018-07-30T15:05:12.083Z,12.33
2018-07-30T15:08:16.351Z,13.37
2018-07-30T15:11:20.654Z,14.03
2018-07-30T15:14:24.908Z,12.63
2018-07-30T15:17:29.173Z,12.20
2018-07-30T15:20:32.965Z,12.73
2018-07-30T15:23:37.702Z,13.20
2018-07-30T15:26:42.094Z,13.90
2018-07-30T15:29:46.554Z,12.33
2018-07-30T15:32:50.955Z,14.03
2018-07-30T15:35:55.290Z,13.00
2018-07-30T15:38:59.691Z,14.47
2018-07-30T15:42:04.188Z,13.30
2018-07-30T15:45:08.569Z,13.47
2018-07-30T15:48:13.012Z,12.80
2018-07-30T15:51:17.249Z,11.90
2018-07-30T15:54:21.546Z,13.43
2018-07-30T15:57:25.772Z,13.00
2018-07-30T16:00:29.947Z,12.13
2018-07-30T16:03:34.221Z,13.63
2018-07-30T16:06:38.378Z,12.80
2018-07-30T16:09:42.922Z,13.13
2018-07-30T16:12:47.259Z,12.87
2018-07-30T16:15:51.873Z,13.13
2018-07-30T16:18:56.201Z,13.73
2018-07-30T16:22:00.591Z,13.67
2018-07-30T16:25:05.108Z,14.07
2018-07-30T16:28:09.600Z,14.37
2018-07-30T16:31:13.802Z,13.93
2018-07-30T16:34:18.104Z,13.27
2018-07-30T16:37:22.117Z,13.80
2018-07-30T16:40:26.210Z,12.50
2018-07-30T16:43:31.347Z,14.10
2018-07-30T16:46:35.703Z,14.03
2018-07-30T16:49:40.032Z,12.97
2018-07-30T16:52:44.241Z,13.13
2018-07-30T16:55:49.026Z,17.57
2018-07-30T16:58:52.703Z,12.53
2018-07-30T17:01:57.372Z,12.33
2018-07-30T17:05:01.712Z,13.37
2018-07-30T17:08:06.124Z,11.10
2018-07-30T17:11:10.628Z,12.00
2018-07-30T17:14:14.394Z,12.13
2018-07-30T17:17:18.767Z,12.50
2018-07-30T17:20:23.131Z,11.17
2018-07-30T17:23:27.561Z,10.90
2018-07-30T17:26:31.901Z,12.13
2018-07-30T17:29:36.288Z,10.97
2018-07-30T17:32:40.785Z,11.17
2018-07-30T17:35:45.620Z,10.70
2018-07-30T17:38:51.001Z,12.00
2018-07-30T17:41:55.645Z,11.07
2018-07-30T17:44:59.689Z,10.90
2018-07-30T17:48:04.248Z,12.17
2018-07-30T17:51:09.004Z,11.60
2018-07-30T17:54:13.832Z,10.90
2018-07-30T17:57:18.344Z,10.40
2018-07-30T18:00:22.833Z,11.03
2018-07-30T18:03:27.343Z,10.80
2018-07-30T18:06:31.778Z,11.27
2018-07-30T18:09:36.010Z,10.83
2018-07-30T18:12:40.319Z,10.30
2018-07-30T18:15:44.624Z,10.23
2018-07-30T18:18:49.290Z,10.00
2018-07-30T18:21:53.466Z,10.57
2018-07-30T18:24:57.981Z,10.87
2018-07-30T18:28:02.386Z,10.93
2018-07-30T18:31:06.815Z,11.00
2018-07-30T18:34:11.390Z,10.40
2018-07-30T18:37:15.858Z,11.13
2018-07-30T18:40:20.264Z,12.20
2018-07-30T18:43:26.020Z,12.37
2018-07-30T18:46:30.468Z,11.50
2018-07-30T18:49:34.878Z,12.50
2018-07-30T18:52:39.109Z,12.50
2018-07-30T18:55:43.619Z,11.93
2018-07-30T18:58:47.974Z,11.87
2018-07-30T19:01:52.272Z,12.60
2018-07-30T19:04:56.450Z,12.30
2018-07-30T19:08:00.826Z,11.37
2018-07-30T19:11:05.286Z,11.63
2018-07-30T19:14:09.955Z,12.10
2018-07-30T19:17:14.278Z,11.70
2018-07-30T19:20:18.503Z,12.13
2018-07-30T19:23:22.648Z,11.20
2018-07-30T19:26:27.448Z,11.93
2018-07-30T19:29:32.104Z,11.23
2018-07-30T19:32:36.761Z,13.07
2018-07-30T19:35:41.121Z,11.47
2018-07-30T19:38:45.528Z,11.77
2018-07-30T19:41:50.240Z,11.87
2018-07-30T19:44:54.831Z,11.40
2018-07-30T19:47:59.127Z,12.40
2018-07-30T19:51:03.995Z,12.43
2018-07-30T19:54:08.718Z,11.17
2018-07-30T19:57:12.902Z,11.57
2018-07-30T20:00:17.300Z,12.90
2018-07-30T20:03:22.091Z,11.30
2018-07-30T20:06:26.652Z,12.20
2018-07-30T20:09:31.272Z,11.30
2018-07-30T20:12:35.793Z,12.90
2018-07-30T20:15:40.503Z,13.23
2018-07-30T20:18:44.997Z,13.13
2018-07-30T20:21:50.118Z,13.53
2018-07-30T20:24:55.055Z,12.60
2018-07-30T20:27:59.601Z,12.90
2018-07-30T20:31:04.046Z,12.00
2018-07-30T20:34:08.425Z,11.47
2018-07-30T20:37:12.913Z,12.80
2018-07-30T20:40:17.314Z,12.40
2018-07-30T20:43:21.618Z,12.13
2018-07-30T20:46:26.101Z,12.47
2018-07-30T20:49:30.513Z,13.50
2018-07-30T20:52:35.036Z,12.93
2018-07-30T20:55:39.328Z,13.27
2018-07-30T20:58:43.699Z,13.73
2018-07-30T21:01:48.491Z,12.50
2018-07-30T21:04:52.856Z,13.03
2018-07-30T21:07:56.664Z,13.10
2018-07-30T21:11:01.040Z,14.00
2018-07-30T21:14:05.274Z,13.40
2018-07-30T21:17:09.583Z,14.30
2018-07-30T21:20:13.879Z,13.90
2018-07-30T21:23:18.196Z,12.13
2018-07-30T21:26:22.522Z,13.03
2018-07-30T21:29:26.958Z,13.37
2018-07-30T21:32:31.492Z,13.87
2018-07-30T21:35:36.378Z,13.83
2018-07-30T21:38:40.703Z,14.00
2018-07-30T21:41:45.815Z,12.40
2018-07-30T21:44:50.180Z,12.80
2018-07-30T21:47:54.943Z,12.97
2018-07-30T21:50:59.237Z,14.40
2018-07-30T21:54:03.660Z,13.37
2018-07-30T21:57:07.808Z,12.83
2018-07-30T22:00:14.630Z,12.93
2018-07-30T22:03:19.251Z,11.67
2018-07-30T22:06:23.567Z,13.13
2018-07-30T22:09:28.014Z,12.60
2018-07-30T22:12:35.458Z,11.90
2018-07-30T22:15:40.280Z,12.77
2018-07-30T22:18:44.441Z,13.53
2018-07-30T22:21:48.774Z,14.00
2018-07-30T22:24:52.938Z,12.40
2018-07-30T22:27:57.243Z,14.67
2018-07-30T22:31:01.449Z,12.77
2018-07-30T22:34:05.995Z,13.20
2018-07-30T22:37:10.665Z,13.40
2018-07-30T22:40:14.949Z,12.77
2018-07-30T22:43:19.231Z,13.00
2018-07-30T22:46:23.476Z,12.23
2018-07-30T22:49:28.016Z,12.27
2018-07-30T22:52:32.545Z,12.20
2018-07-30T22:55:36.719Z,13.10
2018-07-30T22:58:41.237Z,11.67
2018-07-30T23:01:45.491Z,12.20
2018-07-30T23:04:49.895Z,12.73
2018-07-30T23:07:54.199Z,11.33
2018-07-30T23:10:58.464Z,11.60
2018-07-30T23:14:02.751Z,12.50
2018-07-30T23:17:07.005Z,11.83
2018-07-30T23:20:11.428Z,12.60
2018-07-30T23:23:15.846Z,13.18
2018-07-30T23:26:20.130Z,11.77
2018-07-30T23:29:24.506Z,11.90
2018-07-30T23:32:28.989Z,12.20
2018-07-30T23:35:33.460Z,12.10
2018-07-30T23:38:37.580Z,11.30
2018-07-30T23:41:42.234Z,11.43
2018-07-30T23:44:46.734Z,11.87
2018-07-30T23:47:51.002Z,12.33
2018-07-30T23:50:55.228Z,11.33
2018-07-30T23:53:59.391Z,11.53
2018-07-30T23:57:03.868Z,10.03
